Time;durP1;ratioP1;P1;durP2;ratioP2;P2;SDS_P1;SDS_P2;PMS_P1;PMS_P2;Temp;Humidity;BMP_temperature;BMP_pressure;BME280_temperature;BME280_humidity;BME280_pressure;Samples;Min_cycle;Max_cycle;Signal;HPM_P1;HPM_P2
2022/03/15 00:01:19;;;;;;;37.80;15.88;;;8.30;99.90;;;;;;4993249;28;20119;-71
2022/03/15 00:03:44;;;;;;;27.48;15.25;;;8.20;99.90;;;;;;4992766;28;20062;-73
2022/03/15 00:06:10;;;;;;;32.45;15.60;;;8.20;99.90;;;;;;4992648;28;20034;-72
2022/03/15 00:08:36;;;;;;;31.65;15.45;;;8.20;99.80;;;;;;4992725;28;20321;-72
2022/03/15 00:11:05;;;;;;;28.38;14.32;;;8.20;99.80;;;;;;4991549;28;20026;-71
2022/03/15 00:13:38;;;;;;;32.92;16.10;;;8.20;99.80;;;;;;4992923;28;20026;-71
2022/03/15 00:16:07;;;;;;;29.95;15.40;;;8.20;99.90;;;;;;4992511;28;20471;-72
2022/03/15 00:18:33;;;;;;;34.78;15.95;;;8.10;99.90;;;;;;4992424;28;20089;-72
2022/03/15 00:21:00;;;;;;;30.75;14.60;;;8.10;99.90;;;;;;4992294;28;20042;-72
2022/03/15 00:23:26;;;;;;;37.75;15.85;;;8.00;99.80;;;;;;5007656;28;20080;-70
2022/03/15 00:25:53;;;;;;;28.23;15.02;;;8.10;99.80;;;;;;4992886;28;20030;-72
2022/03/15 00:28:19;;;;;;;34.75;15.07;;;8.10;99.90;;;;;;5012082;28;20069;-72
2022/03/15 00:30:45;;;;;;;30.25;15.68;;;8.00;99.90;;;;;;5027254;28;20079;-71
2022/03/15 00:33:13;;;;;;;31.27;16.50;;;8.00;99.90;;;;;;5011752;28;20510;-72
2022/03/15 00:35:38;;;;;;;28.88;15.90;;;8.00;99.90;;;;;;5012078;28;20359;-72
2022/03/15 00:38:04;;;;;;;34.15;16.15;;;7.90;99.90;;;;;;5027246;28;20148;-71
2022/03/15 00:40:30;;;;;;;32.45;16.08;;;7.90;99.90;;;;;;5012145;28;20112;-72
2022/03/15 00:42:55;;;;;;;32.80;15.93;;;7.90;99.90;;;;;;5010721;28;20634;-72
2022/03/15 00:45:23;;;;;;;28.75;15.35;;;7.90;99.90;;;;;;5011617;28;20034;-71
2022/03/15 00:47:50;;;;;;;32.33;16.85;;;7.80;99.80;;;;;;5026896;28;20034;-72
2022/03/15 00:50:15;;;;;;;31.50;16.58;;;7.90;99.80;;;;;;5011512;28;20037;-73
2022/03/15 00:52:41;;;;;;;33.42;16.75;;;7.90;99.90;;;;;;5011292;28;20038;-72
2022/03/15 00:55:08;;;;;;;36.60;16.90;;;7.90;99.90;;;;;;5026603;28;20418;-71
2022/03/15 00:57:33;;;;;;;34.00;16.40;;;7.80;99.90;;;;;;5011412;28;20026;-72
2022/03/15 00:59:59;;;;;;;30.52;15.98;;;7.80;99.90;;;;;;5026677;28;20129;-73
2022/03/15 01:02:25;;;;;;;29.33;16.52;;;7.70;99.90;;;;;;5011329;28;20049;-73
2022/03/15 01:04:51;;;;;;;35.15;18.75;;;7.80;99.90;;;;;;5011772;28;20418;-71
2022/03/15 01:07:17;;;;;;;35.33;17.02;;;7.70;99.90;;;;;;5011425;28;20050;-71
2022/03/15 01:09:42;;;;;;;39.58;17.65;;;7.80;99.90;;;;;;5011652;28;20030;-72
2022/03/15 01:12:09;;;;;;;34.95;17.38;;;7.80;99.90;;;;;;5011523;28;20122;-71
2022/03/15 01:14:35;;;;;;;38.15;18.05;;;7.80;99.90;;;;;;5011348;28;20037;-72
2022/03/15 01:17:02;;;;;;;38.00;18.63;;;7.80;99.90;;;;;;5011602;28;20030;-72
2022/03/15 01:19:28;;;;;;;36.72;18.48;;;7.80;99.90;;;;;;5011364;28;20466;-73
2022/03/15 01:21:55;;;;;;;34.83;18.13;;;7.80;99.90;;;;;;5026542;28;20053;-72
2022/03/15 01:24:21;;;;;;;35.05;17.55;;;7.80;99.90;;;;;;5011249;28;20367;-72
2022/03/15 01:26:47;;;;;;;36.60;18.73;;;7.80;99.80;;;;;;5011311;28;20033;-72
2022/03/15 01:29:13;;;;;;;35.88;17.20;;;7.80;99.90;;;;;;5011166;28;20038;-73
2022/03/15 01:31:38;;;;;;;32.17;17.02;;;7.70;99.90;;;;;;5011637;28;20026;-73
2022/03/15 01:34:04;;;;;;;37.78;17.13;;;7.60;99.90;;;;;;5011034;28;20034;-72
2022/03/15 01:36:30;;;;;;;38.78;18.90;;;7.60;99.90;;;;;;5011105;28;20049;-73
2022/03/15 01:38:57;;;;;;;35.38;18.10;;;7.60;99.90;;;;;;5010988;28;20018;-73
2022/03/15 01:41:23;;;;;;;35.70;18.55;;;7.60;99.90;;;;;;5010897;28;20119;-72
2022/03/15 01:43:49;;;;;;;39.00;18.85;;;7.60;99.90;;;;;;5011335;28;20021;-72
2022/03/15 01:46:16;;;;;;;37.55;18.58;;;7.60;99.90;;;;;;5010947;28;20498;-72
2022/03/15 01:48:42;;;;;;;36.00;17.35;;;7.60;99.90;;;;;;5011034;28;20038;-71
2022/03/15 01:51:09;;;;;;;33.35;17.08;;;7.60;99.90;;;;;;5010880;28;20042;-70
2022/03/15 01:53:37;;;;;;;37.17;18.97;;;7.50;99.90;;;;;;5026249;28;20686;-70
2022/03/15 01:56:05;;;;;;;42.47;18.23;;;7.60;99.90;;;;;;5010909;28;20018;-70
2022/03/15 01:58:30;;;;;;;35.63;18.67;;;7.50;99.90;;;;;;5011405;28;20434;-71
2022/03/15 02:00:56;;;;;;;37.90;18.25;;;7.50;99.90;;;;;;5010983;28;20062;-70
2022/03/15 02:03:23;;;;;;;38.63;18.65;;;7.50;99.90;;;;;;5026237;28;20030;-71
2022/03/15 02:05:48;;;;;;;38.60;18.52;;;7.50;99.90;;;;;;5009426;28;20031;-70
2022/03/15 02:08:15;;;;;;;36.47;17.75;;;7.40;99.80;;;;;;4997853;28;20029;-72
2022/03/15 02:10:41;;;;;;;42.40;19.30;;;7.40;99.70;;;;;;5014819;28;20030;-71
2022/03/15 02:13:08;;;;;;;37.05;18.42;;;7.40;99.90;;;;;;5014586;28;20337;-71
2022/03/15 02:15:34;;;;;;;41.45;21.08;;;7.40;99.80;;;;;;5014306;28;20558;-71
2022/03/15 02:18:00;;;;;;;41.00;20.52;;;7.40;99.90;;;;;;5014330;28;20121;-70
2022/03/15 02:20:26;;;;;;;40.97;19.98;;;7.40;99.90;;;;;;5014095;28;20353;-70
2022/03/15 02:22:52;;;;;;;43.38;19.90;;;7.40;99.90;;;;;;5014796;28;20056;-69
2022/03/15 02:25:18;;;;;;;42.53;21.17;;;7.40;99.90;;;;;;5029794;28;20034;-70
2022/03/15 02:27:43;;;;;;;44.42;20.63;;;7.40;99.90;;;;;;5014172;28;20198;-70
2022/03/15 02:30:10;;;;;;;44.65;22.95;;;7.50;99.80;;;;;;5014035;28;20061;-71
2022/03/15 02:32:35;;;;;;;44.90;21.80;;;7.50;99.90;;;;;;5014108;28;20033;-70
2022/03/15 02:35:02;;;;;;;50.30;22.90;;;7.40;99.90;;;;;;5013713;28;20042;-70
2022/03/15 02:37:28;;;;;;;46.45;22.55;;;7.40;99.90;;;;;;5014532;28;20022;-71
2022/03/15 02:39:53;;;;;;;38.58;19.95;;;7.40;99.90;;;;;;5014058;28;20364;-70
2022/03/15 02:42:19;;;;;;;36.75;19.10;;;7.40;99.90;;;;;;5013806;28;20034;-71
2022/03/15 02:44:45;;;;;;;36.70;18.85;;;7.30;99.70;;;;;;5013774;28;20042;-70
2022/03/15 02:47:10;;;;;;;40.47;19.58;;;7.30;99.60;;;;;;5013593;28;20133;-72
2022/03/15 02:49:36;;;;;;;48.95;22.30;;;7.30;99.90;;;;;;5014080;28;20037;-71
2022/03/15 02:52:02;;;;;;;48.88;23.13;;;7.30;99.90;;;;;;5013615;28;20117;-70
2022/03/15 02:54:28;;;;;;;47.97;20.73;;;7.30;99.90;;;;;;5013397;28;20038;-70
2022/03/15 02:56:54;;;;;;;44.30;20.98;;;7.30;99.90;;;;;;5013651;28;20107;-71
2022/03/15 02:59:20;;;;;;;46.88;22.50;;;7.20;99.90;;;;;;5013344;28;20049;-71
2022/03/15 03:01:47;;;;;;;48.38;22.38;;;7.20;99.90;;;;;;5012776;28;20030;-71
2022/03/15 03:04:14;;;;;;;45.15;22.65;;;7.30;99.90;;;;;;5013493;28;20415;-72
2022/03/15 03:06:41;;;;;;;40.17;21.35;;;7.30;99.90;;;;;;5013499;28;20030;-72
2022/03/15 03:09:07;;;;;;;44.40;22.05;;;7.30;99.90;;;;;;5013550;28;20367;-71
2022/03/15 03:11:33;;;;;;;42.25;20.98;;;7.30;99.90;;;;;;5013316;28;20037;-72
2022/03/15 03:14:00;;;;;;;42.05;20.10;;;7.30;99.90;;;;;;5012995;28;20026;-70
2022/03/15 03:16:26;;;;;;;41.97;20.63;;;7.30;99.90;;;;;;5012602;28;20041;-70
2022/03/15 03:18:58;;;;;;;42.50;21.60;;;7.30;99.90;;;;;;5012355;28;20030;-71
2022/03/15 03:21:25;;;;;;;41.58;20.42;;;7.30;99.90;;;;;;5013147;28;20034;-71
2022/03/15 03:23:53;;;;;;;34.80;19.10;;;7.20;99.80;;;;;;5012012;28;20084;-72
2022/03/15 03:26:21;;;;;;;40.75;21.02;;;7.20;99.70;;;;;;5013005;28;20034;-71
2022/03/15 03:28:47;;;;;;;40.95;20.00;;;7.20;99.60;;;;;;5013302;28;20052;-71
2022/03/15 03:31:13;;;;;;;49.42;22.50;;;7.20;99.70;;;;;;5011993;28;20058;-70
2022/03/15 03:33:39;;;;;;;42.42;20.70;;;7.20;99.90;;;;;;5011750;28;20092;-71
2022/03/15 03:36:07;;;;;;;38.58;20.48;;;7.20;99.90;;;;;;5012850;28;20115;-70
2022/03/15 03:38:33;;;;;;;48.15;20.65;;;7.20;99.90;;;;;;5012684;28;20045;-69
2022/03/15 03:40:59;;;;;;;41.22;21.85;;;7.10;99.90;;;;;;5011550;28;20048;-72
2022/03/15 03:43:25;;;;;;;45.70;20.73;;;7.20;99.90;;;;;;5012108;28;20038;-72
2022/03/15 03:45:51;;;;;;;46.03;21.25;;;7.20;99.90;;;;;;5012537;28;20379;-71
2022/03/15 03:48:16;;;;;;;40.33;19.95;;;7.20;99.90;;;;;;5012593;28;20087;-72
2022/03/15 03:50:43;;;;;;;47.80;21.95;;;7.20;99.90;;;;;;5012762;28;20125;-72
2022/03/15 03:53:09;;;;;;;38.67;19.95;;;7.20;99.90;;;;;;5011358;28;20148;-72
2022/03/15 03:55:36;;;;;;;46.92;21.17;;;7.20;99.90;;;;;;5012882;28;20033;-70
2022/03/15 03:58:02;;;;;;;46.75;21.48;;;7.30;99.90;;;;;;5012331;28;20459;-71
2022/03/15 04:00:28;;;;;;;40.70;20.38;;;7.30;99.90;;;;;;5012400;28;20022;-71
2022/03/15 04:02:57;;;;;;;46.90;20.80;;;7.30;99.90;;;;;;5011230;28;20034;-71
2022/03/15 04:05:23;;;;;;;40.97;20.65;;;7.30;99.90;;;;;;5012496;28;20049;-72
2022/03/15 04:07:49;;;;;;;44.22;20.95;;;7.30;99.90;;;;;;5012549;28;20109;-71
2022/03/15 04:10:16;;;;;;;43.38;19.17;;;7.30;99.90;;;;;;5012357;28;20125;-70
2022/03/15 04:12:44;;;;;;;42.33;19.25;;;7.30;99.90;;;;;;5012219;28;20030;-71
2022/03/15 04:15:09;;;;;;;43.20;21.70;;;7.30;99.90;;;;;;5012155;28;20053;-71
2022/03/15 04:17:35;;;;;;;41.88;19.33;;;7.40;99.90;;;;;;5012107;28;20034;-72
2022/03/15 04:20:01;;;;;;;42.58;20.35;;;7.30;99.90;;;;;;5011910;28;20060;-70
2022/03/15 04:22:26;;;;;;;43.70;19.58;;;7.40;99.90;;;;;;5012834;28;20029;-72
2022/03/15 04:24:52;;;;;;;38.72;19.33;;;7.40;99.90;;;;;;5012261;28;20519;-70
2022/03/15 04:27:18;;;;;;;43.20;20.33;;;7.40;99.90;;;;;;5011727;28;20030;-71
2022/03/15 04:29:44;;;;;;;46.20;19.67;;;7.40;99.90;;;;;;5012117;28;20033;-70
2022/03/15 04:32:09;;;;;;;39.92;20.20;;;7.40;99.90;;;;;;5011626;28;20037;-72
2022/03/15 04:34:35;;;;;;;37.92;19.52;;;7.40;99.90;;;;;;5012262;28;20040;-71
2022/03/15 04:37:01;;;;;;;40.65;19.30;;;7.40;99.90;;;;;;5010772;28;20026;-71
2022/03/15 04:39:26;;;;;;;37.15;17.98;;;7.40;99.90;;;;;;5011791;28;20112;-71
2022/03/15 04:41:52;;;;;;;39.95;19.15;;;7.40;99.90;;;;;;5010645;28;20060;-71
2022/03/15 04:44:18;;;;;;;38.72;19.48;;;7.40;99.90;;;;;;5011529;28;20359;-71
2022/03/15 04:46:44;;;;;;;42.22;19.15;;;7.50;99.90;;;;;;5011986;28;20096;-70
2022/03/15 04:49:10;;;;;;;40.92;20.35;;;7.50;99.90;;;;;;5011580;28;20030;-72
2022/03/15 04:51:35;;;;;;;40.85;20.00;;;7.50;99.90;;;;;;5011563;28;20022;-71
2022/03/15 04:54:02;;;;;;;46.28;19.70;;;7.50;99.80;;;;;;5011500;28;20407;-71
2022/03/15 04:56:27;;;;;;;37.10;18.08;;;7.50;99.90;;;;;;5011448;28;20400;-71
2022/03/15 04:58:53;;;;;;;42.10;19.65;;;7.50;99.90;;;;;;5011408;28;20108;-70
2022/03/15 05:01:18;;;;;;;34.92;17.90;;;7.50;99.80;;;;;;5011665;28;20324;-72
2022/03/15 05:03:44;;;;;;;46.53;18.55;;;7.50;99.90;;;;;;5010171;28;20304;-72
2022/03/15 05:06:10;;;;;;;38.85;18.50;;;7.50;99.90;;;;;;5010166;28;20041;-71
2022/03/15 05:08:35;;;;;;;40.65;19.52;;;7.50;99.90;;;;;;5011253;28;20474;-73
2022/03/15 05:11:07;;;;;;;38.08;18.38;;;7.50;99.90;;;;;;5010175;28;20033;-72
2022/03/15 05:13:39;;;;;;;46.38;19.88;;;7.50;99.90;;;;;;5011656;28;20030;-71
2022/03/15 05:16:10;;;;;;;35.22;18.27;;;7.50;99.90;;;;;;5011118;28;20034;-72
2022/03/15 05:18:35;;;;;;;41.28;18.70;;;7.50;99.90;;;;;;5011043;28;20030;-72
2022/03/15 05:21:05;;;;;;;39.40;19.05;;;7.50;99.90;;;;;;5010975;28;20107;-72
2022/03/15 05:23:30;;;;;;;41.50;18.92;;;7.60;99.90;;;;;;5011177;28;20053;-72
2022/03/15 05:25:56;;;;;;;36.22;18.58;;;7.50;99.90;;;;;;5011066;28;20081;-70
2022/03/15 05:28:22;;;;;;;38.58;19.05;;;7.50;99.90;;;;;;5010464;28;20014;-72
2022/03/15 05:30:48;;;;;;;37.67;17.85;;;7.50;99.90;;;;;;5011191;28;20133;-72
2022/03/15 05:33:13;;;;;;;37.25;18.92;;;7.50;99.90;;;;;;5010938;28;20084;-71
2022/03/15 05:35:39;;;;;;;44.00;17.77;;;7.50;99.90;;;;;;5010990;28;20069;-71
2022/03/15 05:38:05;;;;;;;35.25;17.80;;;7.40;99.90;;;;;;5026391;28;20034;-71
2022/03/15 05:40:31;;;;;;;37.55;18.35;;;7.40;99.90;;;;;;5014051;28;20025;-71
2022/03/15 05:42:57;;;;;;;41.70;18.92;;;7.40;99.90;;;;;;5013880;28;20022;-72
2022/03/15 05:45:24;;;;;;;34.22;16.45;;;7.50;99.90;;;;;;5014944;28;20133;-72
2022/03/15 05:47:50;;;;;;;37.15;19.70;;;7.50;99.70;;;;;;5013743;28;20034;-70
2022/03/15 05:50:16;;;;;;;37.90;18.67;;;7.40;99.70;;;;;;5014840;28;20040;-72
2022/03/15 05:52:41;;;;;;;41.55;18.75;;;7.40;99.90;;;;;;5015786;28;20487;-71
2022/03/15 05:55:07;;;;;;;45.25;17.80;;;7.40;99.90;;;;;;5014662;28;20049;-71
2022/03/15 05:57:33;;;;;;;37.53;18.90;;;7.40;99.90;;;;;;5014625;28;20050;-72
2022/03/15 05:59:58;;;;;;;39.13;17.80;;;7.40;99.90;;;;;;5014757;28;20030;-73
2022/03/15 06:02:24;;;;;;;33.00;16.73;;;7.50;99.90;;;;;;5014661;28;20625;-71
2022/03/15 06:04:49;;;;;;;35.40;17.00;;;7.50;99.90;;;;;;5014987;28;20088;-73
2022/03/15 06:07:15;;;;;;;33.90;16.42;;;7.50;99.90;;;;;;5014634;28;20418;-72
2022/03/15 06:09:40;;;;;;;39.17;18.92;;;7.50;99.90;;;;;;5014425;28;20040;-73
2022/03/15 06:12:07;;;;;;;39.47;18.60;;;7.50;99.80;;;;;;5013129;28;20030;-71
2022/03/15 06:14:32;;;;;;;40.53;18.60;;;7.50;99.80;;;;;;5014176;28;20041;-72
2022/03/15 06:16:58;;;;;;;36.75;18.55;;;7.40;99.90;;;;;;5014273;28;20359;-71
2022/03/15 06:19:25;;;;;;;37.92;18.63;;;7.50;99.90;;;;;;5014614;28;20030;-71
2022/03/15 06:21:51;;;;;;;36.37;18.40;;;7.50;99.90;;;;;;5014169;28;20049;-72
2022/03/15 06:24:17;;;;;;;40.92;17.45;;;7.50;99.90;;;;;;5014128;28;20040;-71
2022/03/15 06:26:43;;;;;;;38.35;18.45;;;7.60;99.90;;;;;;5014004;28;20084;-73
2022/03/15 06:29:09;;;;;;;39.83;16.98;;;7.50;99.90;;;;;;5013903;28;20105;-73
2022/03/15 06:31:35;;;;;;;34.63;16.83;;;7.60;99.90;;;;;;5014414;28;20116;-72
2022/03/15 06:34:04;;;;;;;38.00;18.40;;;7.60;99.90;;;;;;5013742;28;20038;-71
2022/03/15 06:36:30;;;;;;;31.75;15.63;;;7.70;99.90;;;;;;5014102;28;20124;-73
2022/03/15 06:38:56;;;;;;;33.70;17.30;;;7.70;99.90;;;;;;5013866;28;20057;-72
2022/03/15 06:41:22;;;;;;;35.47;17.75;;;7.70;99.80;;;;;;5013904;28;20034;-71
2022/03/15 06:43:48;;;;;;;36.78;17.13;;;7.70;99.90;;;;;;5014005;28;20080;-72
2022/03/15 06:46:14;;;;;;;32.40;16.52;;;7.80;99.90;;;;;;5013783;28;20037;-74
2022/03/15 06:48:40;;;;;;;36.50;18.42;;;7.80;99.90;;;;;;5013636;28;20034;-74
2022/03/15 06:51:06;;;;;;;37.65;17.65;;;7.90;99.90;;;;;;5013601;28;20034;-72
2022/03/15 06:53:32;;;;;;;38.28;17.70;;;8.00;99.80;;;;;;5013352;28;20042;-74
2022/03/15 06:55:58;;;;;;;38.63;18.98;;;8.00;99.70;;;;;;5013755;28;20049;-75
2022/03/15 06:58:23;;;;;;;40.13;20.42;;;8.10;99.80;;;;;;5033491;28;20426;-72
2022/03/15 07:00:49;;;;;;;39.20;18.02;;;8.10;99.70;;;;;;5033026;28;20105;-74
2022/03/15 07:03:15;;;;;;;37.95;16.23;;;8.10;99.60;;;;;;5032942;28;20073;-72
2022/03/15 07:05:41;;;;;;;42.78;19.88;;;8.20;99.60;;;;;;5033233;28;20029;-75
2022/03/15 07:08:07;;;;;;;32.95;16.70;;;8.20;99.50;;;;;;5031829;28;20477;-73
2022/03/15 07:10:33;;;;;;;35.85;18.45;;;8.30;99.50;;;;;;5033379;28;20060;-74
2022/03/15 07:13:00;;;;;;;30.77;15.43;;;8.40;99.40;;;;;;5032501;28;20109;-72
2022/03/15 07:15:26;;;;;;;30.38;15.70;;;8.40;99.30;;;;;;5031758;28;20494;-73
2022/03/15 07:17:56;;;;;;;33.08;17.05;;;8.50;99.30;;;;;;5032342;28;20076;-72
2022/03/15 07:20:23;;;;;;;37.17;17.60;;;8.50;99.30;;;;;;5031111;28;20049;-74
2022/03/15 07:22:49;;;;;;;30.40;15.03;;;8.50;99.10;;;;;;5031855;28;20036;-71
2022/03/15 07:25:16;;;;;;;27.33;14.18;;;8.60;99.10;;;;;;5032406;28;20029;-74
2022/03/15 07:27:43;;;;;;;30.13;15.85;;;8.60;99.20;;;;;;5032184;28;20379;-74
2022/03/15 07:30:09;;;;;;;29.17;14.13;;;8.70;98.90;;;;;;5032352;28;20033;-75
2022/03/15 07:32:35;;;;;;;27.77;13.68;;;8.80;98.90;;;;;;5031239;28;20394;-74
2022/03/15 07:35:01;;;;;;;30.23;14.20;;;8.80;98.80;;;;;;5031621;28;20096;-76
2022/03/15 07:37:27;;;;;;;27.08;13.90;;;8.80;98.70;;;;;;5032653;28;20021;-73
2022/03/15 07:39:52;;;;;;;28.75;15.30;;;8.90;98.80;;;;;;5032179;28;20022;-75
2022/03/15 07:42:19;;;;;;;32.22;13.80;;;8.90;98.70;;;;;;5032016;28;20033;-74
2022/03/15 07:44:45;;;;;;;26.02;13.30;;;9.00;98.60;;;;;;5031839;28;20140;-74
2022/03/15 07:47:13;;;;;;;30.42;14.15;;;9.00;98.60;;;;;;5031950;28;20085;-74
2022/03/15 07:49:38;;;;;;;26.50;13.70;;;9.10;98.60;;;;;;5032461;28;20045;-74
2022/03/15 07:52:04;;;;;;;28.27;13.20;;;9.10;98.60;;;;;;5032048;28;20103;-73
2022/03/15 07:54:30;;;;;;;30.55;14.00;;;9.20;98.50;;;;;;5031627;28;20041;-73
2022/03/15 07:56:55;;;;;;;31.20;14.43;;;9.20;98.60;;;;;;5030383;28;20049;-75
2022/03/15 07:59:21;;;;;;;25.88;13.73;;;9.30;98.50;;;;;;5029082;28;20029;-74
2022/03/15 08:01:47;;;;;;;29.92;13.85;;;9.40;98.30;;;;;;5013677;28;20022;-74
2022/03/15 08:04:13;;;;;;;27.10;12.65;;;9.50;98.30;;;;;;5011802;28;20495;-73
2022/03/15 08:06:38;;;;;;;24.50;13.45;;;9.60;98.40;;;;;;5011767;28;20038;-73
2022/03/15 08:09:04;;;;;;;29.88;14.18;;;9.80;98.10;;;;;;5012483;28;20117;-73
2022/03/15 08:11:30;;;;;;;25.92;12.55;;;9.80;98.00;;;;;;5027285;28;20172;-73
2022/03/15 08:13:57;;;;;;;30.80;16.17;;;9.90;97.90;;;;;;5012054;28;20515;-74
2022/03/15 08:16:23;;;;;;;28.13;12.85;;;10.00;97.40;;;;;;5012401;28;20024;-74
2022/03/15 08:18:50;;;;;;;24.38;11.57;;;10.00;97.10;;;;;;5012820;28;20065;-73
2022/03/15 08:21:16;;;;;;;22.08;11.55;;;10.00;97.00;;;;;;5007629;28;20042;-71
2022/03/15 08:23:42;;;;;;;28.10;13.05;;;10.10;97.10;;;;;;4998531;28;20117;-72
2022/03/15 08:26:08;;;;;;;24.83;11.85;;;10.20;96.90;;;;;;5011485;28;20114;-71
2022/03/15 08:28:34;;;;;;;23.10;11.90;;;10.30;96.80;;;;;;5011964;28;20156;-72
2022/03/15 08:31:00;;;;;;;24.10;11.98;;;10.40;96.80;;;;;;5027019;28;20041;-73
2022/03/15 08:33:26;;;;;;;36.78;13.20;;;10.60;96.70;;;;;;5007181;28;20172;-73
2022/03/15 08:35:52;;;;;;;26.55;11.10;;;10.60;96.40;;;;;;4999818;28;20030;-73
2022/03/15 08:38:18;;;;;;;25.08;11.02;;;10.60;96.20;;;;;;5011612;28;20072;-70
2022/03/15 08:40:45;;;;;;;23.27;11.07;;;10.60;96.10;;;;;;5011965;28;20021;-72
2022/03/15 08:43:11;;;;;;;24.70;12.13;;;10.70;95.90;;;;;;5026911;28;20030;-72
2022/03/15 08:45:37;;;;;;;25.20;11.90;;;10.70;95.70;;;;;;5011824;28;20175;-72
2022/03/15 08:48:04;;;;;;;25.60;12.93;;;10.70;95.60;;;;;;5011522;28;20034;-73
2022/03/15 08:50:29;;;;;;;21.52;11.07;;;10.70;95.50;;;;;;5011426;28;20309;-72
2022/03/15 08:52:55;;;;;;;17.85;10.35;;;10.70;95.50;;;;;;5011330;28;20458;-73
2022/03/15 08:55:22;;;;;;;22.05;10.85;;;10.70;95.50;;;;;;5011853;28;20030;-72
2022/03/15 08:57:48;;;;;;;20.48;10.63;;;10.70;95.20;;;;;;5026865;28;20026;-71
2022/03/15 09:00:15;;;;;;;22.95;10.70;;;10.70;95.20;;;;;;5026267;28;20236;-71
2022/03/15 09:02:40;;;;;;;20.77;10.82;;;10.70;95.00;;;;;;5011141;28;20084;-73
2022/03/15 09:05:06;;;;;;;23.30;11.13;;;10.80;95.00;;;;;;5011765;28;20513;-74
2022/03/15 09:07:32;;;;;;;20.30;10.70;;;10.90;95.10;;;;;;5012171;28;20049;-73
2022/03/15 09:09:58;;;;;;;19.13;9.80;;;11.00;95.00;;;;;;5006665;28;20419;-77
2022/03/15 09:12:24;;;;;;;22.98;10.50;;;11.10;95.10;;;;;;4990697;28;20031;-75
2022/03/15 09:14:50;;;;;;;19.63;10.00;;;11.20;95.00;;;;;;4998071;28;20166;-73
2022/03/15 09:17:16;;;;;;;21.08;10.40;;;11.20;94.70;;;;;;5026376;28;20034;-74
2022/03/15 09:19:42;;;;;;;18.88;9.73;;;11.30;94.40;;;;;;5011400;28;20030;-73
2022/03/15 09:22:08;;;;;;;19.58;10.30;;;11.30;94.40;;;;;;5007024;28;20042;-74
2022/03/15 09:24:37;;;;;;;20.15;9.77;;;11.30;94.30;;;;;;5005476;28;20026;-72
2022/03/15 09:27:04;;;;;;;22.42;11.15;;;11.40;94.40;;;;;;5011799;28;20403;-75
2022/03/15 09:29:30;;;;;;;22.97;11.17;;;11.50;94.20;;;;;;5011815;28;20034;-73
2022/03/15 09:31:55;;;;;;;25.10;12.00;;;11.60;94.10;;;;;;5011703;28;20454;-74
2022/03/15 09:34:22;;;;;;;23.73;11.75;;;11.60;93.90;;;;;;5011025;28;20385;-74
2022/03/15 09:36:49;;;;;;;24.80;11.65;;;11.60;93.90;;;;;;5010599;28;20094;-74
2022/03/15 09:39:15;;;;;;;27.42;13.73;;;11.70;93.70;;;;;;5010645;28;20064;-72
2022/03/15 09:41:41;;;;;;;20.35;10.70;;;11.80;93.80;;;;;;5010626;28;20054;-72
2022/03/15 09:44:09;;;;;;;30.52;12.43;;;11.90;93.60;;;;;;5010563;28;20054;-72
2022/03/15 09:46:50;;;;;;;24.92;10.43;;;11.90;93.40;;;;;;5011441;28;20025;-72
2022/03/15 09:49:18;;;;;;;18.27;9.50;;;12.10;93.20;;;;;;5010555;28;20464;-74
2022/03/15 09:51:45;;;;;;;17.27;8.98;;;12.10;93.10;;;;;;5010623;28;20033;-73
2022/03/15 09:54:12;;;;;;;15.57;9.17;;;12.20;93.10;;;;;;5011500;28;20095;-72
2022/03/15 09:56:40;;;;;;;15.48;8.30;;;12.30;92.70;;;;;;5010993;28;20256;-72
2022/03/15 09:59:18;;;;;;;19.88;8.27;;;12.30;92.40;;;;;;5010728;28;20025;-73
2022/03/15 10:01:45;;;;;;;;;;;12.40;92.10;;;;;;5011361;28;20022;-71
2022/03/15 10:04:11;;;;;;;13.52;6.80;;;12.50;91.90;;;;;;5010289;28;19975;-72
2022/03/15 10:06:38;;;;;;;14.55;7.30;;;12.60;91.90;;;;;;5011239;28;20026;-73
2022/03/15 10:09:08;;;;;;;12.52;6.10;;;12.80;91.80;;;;;;5011401;28;20049;-73
2022/03/15 10:11:35;;;;;;;13.90;5.57;;;13.00;91.60;;;;;;5011444;28;20061;-72
2022/03/15 10:14:01;;;;;;;12.63;5.73;;;13.00;91.20;;;;;;5011497;28;20026;-73
2022/03/15 10:16:35;;;;;;;13.52;6.28;;;13.10;90.80;;;;;;5012014;28;20723;-73
2022/03/15 10:19:01;;;;;;;10.52;6.47;;;13.20;91.10;;;;;;5011359;28;20120;-73
2022/03/15 10:21:51;;;;;;;13.02;6.90;;;13.40;91.00;;;;;;5010984;28;20625;-74
2022/03/15 10:24:19;;;;;;;12.40;6.57;;;13.60;91.10;;;;;;5008606;28;20038;-74
2022/03/15 10:26:47;;;;;;;15.55;6.50;;;13.60;90.60;;;;;;5014169;28;20058;-74
2022/03/15 10:29:14;;;;;;;18.75;7.68;;;13.70;90.40;;;;;;5029381;28;20298;-72
2022/03/15 10:31:41;;;;;;;12.70;6.50;;;13.80;90.40;;;;;;5015106;28;20414;-74
2022/03/15 10:34:09;;;;;;;15.43;7.10;;;13.70;90.10;;;;;;5014152;28;20376;-75
2022/03/15 10:36:43;;;;;;;16.45;8.55;;;13.60;90.00;;;;;;5029860;28;20084;-73
2022/03/15 10:39:11;;;;;;;16.40;8.20;;;13.70;90.20;;;;;;5014643;28;20119;-73
2022/03/15 10:41:48;;;;;;;12.10;6.35;;;13.60;90.20;;;;;;5013844;28;20037;-74
2022/03/15 10:44:25;;;;;;;15.60;7.43;;;13.50;90.10;;;;;;5013707;28;20391;-74
2022/03/15 10:47:21;;;;;;;16.97;6.77;;;13.40;90.00;;;;;;5013919;28;20359;-74
2022/03/15 10:49:54;;;;;;;13.98;6.45;;;13.40;90.10;;;;;;5012840;28;20037;-73
2022/03/15 10:52:41;;;;;;;11.63;6.05;;;13.40;90.30;;;;;;5014167;28;20064;-76
2022/03/15 10:55:14;;;;;;;15.53;6.80;;;13.30;90.40;;;;;;5028560;28;20395;-73
2022/03/15 10:58:00;;;;;;;15.55;7.78;;;13.30;90.50;;;;;;5014380;28;20259;-74
2022/03/15 11:00:38;;;;;;;14.30;6.15;;;13.30;90.60;;;;;;5011855;28;20057;-71
2022/03/15 11:03:13;;;;;;;11.32;6.07;;;13.40;90.60;;;;;;5014388;28;20030;-73
2022/03/15 11:05:40;;;;;;;18.65;6.35;;;13.50;90.50;;;;;;5030859;28;20400;-74
2022/03/15 11:08:11;;;;;;;16.55;7.43;;;13.50;90.30;;;;;;5013499;28;20085;-75
2022/03/15 11:10:38;;;;;;;11.85;6.60;;;13.50;90.30;;;;;;5030344;28;20056;-74
2022/03/15 11:13:11;;;;;;;14.70;5.97;;;13.50;90.40;;;;;;5013067;28;20030;-74
2022/03/15 11:15:48;;;;;;;14.95;6.80;;;13.60;90.40;;;;;;5012475;28;20034;-76
2022/03/15 11:18:16;;;;;;;13.88;6.55;;;13.80;90.40;;;;;;5008406;28;20030;-76
2022/03/15 11:20:50;;;;;;;13.18;6.18;;;13.80;90.20;;;;;;4999696;28;20042;-77
2022/03/15 11:23:17;;;;;;;10.80;5.60;;;13.90;90.20;;;;;;5013352;28;20092;-74
2022/03/15 11:25:45;;;;;;;13.07;6.43;;;13.90;90.10;;;;;;5028671;28;20474;-73
2022/03/15 11:28:24;;;;;;;16.50;8.25;;;14.00;90.00;;;;;;5012738;28;20251;-72
2022/03/15 11:30:51;;;;;;;12.60;6.22;;;14.10;90.10;;;;;;5012694;28;20029;-73
2022/03/15 11:33:17;;;;;;;10.82;6.30;;;14.20;90.10;;;;;;5012109;28;20041;-73
2022/03/15 11:35:44;;;;;;;12.85;5.40;;;14.20;89.50;;;;;;5012505;28;20030;-73
2022/03/15 11:38:12;;;;;;;13.23;6.00;;;14.20;89.30;;;;;;5011688;28;20018;-72
2022/03/15 11:40:39;;;;;;;18.63;6.00;;;14.30;90.10;;;;;;5012644;28;20052;-76
2022/03/15 11:43:23;;;;;;;9.70;5.80;;;14.30;89.60;;;;;;5011618;28;20091;-75
2022/03/15 11:46:00;;;;;;;17.02;6.45;;;14.50;89.60;;;;;;5012099;28;20033;-73
2022/03/15 11:48:37;;;;;;;9.43;5.20;;;14.60;89.20;;;;;;5012117;28;20057;-74
2022/03/15 11:51:36;;;;;;;11.55;5.57;;;14.60;88.80;;;;;;5012151;28;20415;-73
2022/03/15 11:54:22;;;;;;;13.75;6.55;;;14.70;89.00;;;;;;5011762;28;20136;-74
2022/03/15 11:56:53;;;;;;;12.23;6.75;;;14.70;88.30;;;;;;5012533;28;20040;-74
2022/03/15 11:59:19;;;;;;;11.27;6.50;;;14.60;87.90;;;;;;5012804;28;20041;-74
2022/03/15 12:01:47;;;;;;;24.23;11.15;;;14.60;87.60;;;;;;5013207;28;20030;-75
2022/03/15 12:04:18;;;;;;;11.07;5.90;;;14.50;88.00;;;;;;5012260;28;20029;-76
2022/03/15 12:06:54;;;;;;;12.18;5.07;;;14.40;87.70;;;;;;5012478;28;20049;-74
2022/03/15 12:09:25;;;;;;;8.50;4.78;;;14.50;87.10;;;;;;5027964;28;20030;-76
2022/03/15 12:12:28;;;;;;;13.23;4.28;;;14.40;86.70;;;;;;5012173;28;20038;-76
2022/03/15 12:14:54;;;;;;;11.70;4.60;;;14.40;86.20;;;;;;5004659;28;20034;-76
2022/03/15 12:17:20;;;;;;;13.60;5.93;;;14.40;86.50;;;;;;5013122;28;20033;-77
2022/03/15 12:19:50;;;;;;;11.73;5.20;;;14.40;87.40;;;;;;5013246;28;20105;-76
2022/03/15 12:22:34;;;;;;;11.13;5.78;;;14.40;87.40;;;;;;5013129;28;20064;-74
2022/03/15 12:25:07;;;;;;;13.60;4.68;;;14.50;87.00;;;;;;5012460;28;20026;-73
2022/03/15 12:27:40;;;;;;;20.88;5.20;;;14.50;86.60;;;;;;5015421;28;20094;-74
2022/03/15 12:30:08;;;;;;;11.38;5.18;;;14.50;86.60;;;;;;5012101;28;20038;-73
2022/03/15 12:32:33;;;;;;;19.90;8.70;;;14.50;86.10;;;;;;5011888;28;20415;-72
2022/03/15 12:34:59;;;;;;;14.68;7.00;;;14.50;86.00;;;;;;5028257;28;20037;-74
2022/03/15 12:37:32;;;;;;;9.25;4.35;;;14.50;86.20;;;;;;5013208;28;20026;-75